TUI6HA EDDV-EDDH
Flight info
| Callsign | TUI6HA |
|---|---|
| Flight time | 0h 36m |
| Altitude | 23000 |
| Route | CEL1G/09R CEL Q282 DIRBO T902 RARUP RARUP6A |
| Aircraft | B738/M-SDE2E3FGHIRWXY/LB1 |
Departure
| Time | 2026-04-21 12:45 |
|---|---|
| Airport | Hannover Airport (EDDV) |
Arrival
| Time | 2026-04-21 13:21 |
|---|---|
| Airport | Hamburg Helmut Schmidt Airport (EDDH) |
| Time | Latitude | Longitude | Altitude | Speed | Heading |
|---|---|---|---|---|---|
| 2026-04-21 12:13 | 52.45772 | 9.69584 | 198 ft | 0 kts | 53° |
| 2026-04-21 12:14 | 52.45767 | 9.69574 | 206 ft | 0 kts | 53° |
| 2026-04-21 12:35 | 52.45767 | 9.69573 | 190 ft | 1 kts | 53° |
| 2026-04-21 12:36 | 52.45752 | 9.69542 | 208 ft | 4 kts | 45° |
| 2026-04-21 12:36 | 52.45734 | 9.69514 | 198 ft | 4 kts | 41° |
| 2026-04-21 12:36 | 52.45714 | 9.69496 | 206 ft | 4 kts | 353° |
| 2026-04-21 12:36 | 52.45692 | 9.69514 | 192 ft | 4 kts | 306° |
| 2026-04-21 12:37 | 52.45680 | 9.69552 | 202 ft | 4 kts | 278° |
| 2026-04-21 12:37 | 52.45679 | 9.69563 | 206 ft | 0 kts | 272° |
| 2026-04-21 12:40 | 52.45680 | 9.69562 | 190 ft | 1 kts | 272° |
| 2026-04-21 12:41 | 52.45689 | 9.69538 | 201 ft | 4 kts | 316° |
| 2026-04-21 12:41 | 52.45726 | 9.69483 | 194 ft | 9 kts | 322° |
| 2026-04-21 12:41 | 52.45757 | 9.69382 | 195 ft | 11 kts | 277° |
| 2026-04-21 12:41 | 52.45763 | 9.69247 | 192 ft | 12 kts | 270° |
| 2026-04-21 12:42 | 52.45710 | 9.69152 | 194 ft | 12 kts | 188° |
| 2026-04-21 12:42 | 52.45631 | 9.69105 | 196 ft | 13 kts | 239° |
| 2026-04-21 12:42 | 52.45629 | 9.68955 | 200 ft | 14 kts | 272° |
| 2026-04-21 12:42 | 52.45633 | 9.68791 | 190 ft | 15 kts | 272° |
| 2026-04-21 12:43 | 52.45637 | 9.68610 | 190 ft | 17 kts | 272° |
| 2026-04-21 12:43 | 52.45643 | 9.68393 | 200 ft | 21 kts | 272° |
| 2026-04-21 12:43 | 52.45651 | 9.68132 | 190 ft | 25 kts | 272° |
| 2026-04-21 12:43 | 52.45658 | 9.67834 | 193 ft | 22 kts | 263° |
| 2026-04-21 12:44 | 52.45542 | 9.67714 | 193 ft | 24 kts | 157° |
| 2026-04-21 12:44 | 52.45492 | 9.67972 | 189 ft | 27 kts | 93° |
| 2026-04-21 12:44 | 52.45479 | 9.68593 | 197 ft | 103 kts | 91° |
| 2026-04-21 12:44 | 52.45425 | 9.70246 | 481 ft | 175 kts | 91° |
| 2026-04-21 12:45 | 52.45340 | 9.72429 | 1518 ft | 204 kts | 91° |
| 2026-04-21 12:45 | 52.45271 | 9.74817 | 2820 ft | 216 kts | 91° |
| 2026-04-21 12:45 | 52.45213 | 9.77327 | 3654 ft | 224 kts | 90° |
| 2026-04-21 12:45 | 52.45160 | 9.79865 | 4307 ft | 227 kts | 91° |
| 2026-04-21 12:46 | 52.45104 | 9.82507 | 4953 ft | 236 kts | 91° |
| 2026-04-21 12:46 | 52.45048 | 9.85241 | 5578 ft | 242 kts | 91° |
| 2026-04-21 12:46 | 52.45003 | 9.87994 | 6263 ft | 243 kts | 87° |
| 2026-04-21 12:46 | 52.45404 | 9.90694 | 6916 ft | 253 kts | 64° |
| 2026-04-21 12:47 | 52.46475 | 9.93118 | 7572 ft | 275 kts | 43° |
| 2026-04-21 12:47 | 52.48170 | 9.94783 | 8269 ft | 295 kts | 27° |
| 2026-04-21 12:47 | 52.50091 | 9.96219 | 8952 ft | 312 kts | 26° |
| 2026-04-21 12:47 | 52.52122 | 9.97718 | 9646 ft | 327 kts | 26° |
| 2026-04-21 12:48 | 52.54211 | 9.99275 | 10251 ft | 333 kts | 27° |
| 2026-04-21 12:48 | 52.56323 | 10.00866 | 10305 ft | 333 kts | 27° |
| 2026-04-21 12:48 | 52.58301 | 10.02694 | 10483 ft | 330 kts | 41° |
| 2026-04-21 12:48 | 52.59833 | 10.05543 | 10725 ft | 330 kts | 59° |
| 2026-04-21 12:49 | 52.60900 | 10.08827 | 10990 ft | 330 kts | 64° |
| 2026-04-21 12:49 | 52.61923 | 10.12272 | 11247 ft | 331 kts | 65° |
| 2026-04-21 12:49 | 52.62918 | 10.15680 | 11489 ft | 330 kts | 65° |
| 2026-04-21 12:49 | 52.63915 | 10.19086 | 11736 ft | 330 kts | 65° |
| 2026-04-21 12:50 | 52.64918 | 10.22491 | 12005 ft | 331 kts | 64° |
| 2026-04-21 12:50 | 52.65931 | 10.25911 | 12265 ft | 332 kts | 64° |
| 2026-04-21 12:50 | 52.66946 | 10.29328 | 12521 ft | 333 kts | 64° |
| 2026-04-21 12:50 | 52.67968 | 10.32768 | 12778 ft | 334 kts | 64° |
| 2026-04-21 12:51 | 52.68995 | 10.36216 | 13044 ft | 336 kts | 64° |
| 2026-04-21 12:51 | 52.70024 | 10.39676 | 13317 ft | 337 kts | 64° |
| 2026-04-21 12:51 | 52.71055 | 10.43146 | 13587 ft | 338 kts | 64° |
| 2026-04-21 12:51 | 52.72088 | 10.46629 | 13856 ft | 339 kts | 64° |
| 2026-04-21 12:52 | 52.73123 | 10.50121 | 14127 ft | 340 kts | 64° |
| 2026-04-21 12:52 | 52.74147 | 10.53583 | 14372 ft | 341 kts | 64° |
| 2026-04-21 12:52 | 52.75186 | 10.57097 | 14618 ft | 342 kts | 65° |
| 2026-04-21 12:52 | 52.76227 | 10.60627 | 14872 ft | 343 kts | 65° |
| 2026-04-21 12:53 | 52.77274 | 10.64182 | 15127 ft | 344 kts | 64° |
| 2026-04-21 12:53 | 52.78319 | 10.67730 | 15310 ft | 346 kts | 64° |
| 2026-04-21 12:53 | 52.79370 | 10.71308 | 15303 ft | 346 kts | 65° |
| 2026-04-21 12:53 | 52.80417 | 10.74878 | 15306 ft | 345 kts | 65° |
| 2026-04-21 12:54 | 52.81545 | 10.78379 | 15303 ft | 347 kts | 56° |
| 2026-04-21 12:54 | 52.83285 | 10.81150 | 15317 ft | 351 kts | 36° |
| 2026-04-21 12:54 | 52.85505 | 10.82876 | 15320 ft | 357 kts | 20° |
| 2026-04-21 12:54 | 52.87978 | 10.83496 | 15313 ft | 365 kts | 2° |
| 2026-04-21 12:55 | 52.90520 | 10.83146 | 15322 ft | 368 kts | 358° |
| 2026-04-21 12:55 | 52.93065 | 10.82618 | 15312 ft | 369 kts | 356° |
| 2026-04-21 12:55 | 52.95606 | 10.82045 | 15314 ft | 368 kts | 356° |
| 2026-04-21 12:55 | 52.98142 | 10.81474 | 15309 ft | 368 kts | 356° |
| 2026-04-21 12:56 | 53.00677 | 10.80915 | 15312 ft | 368 kts | 357° |
| 2026-04-21 12:56 | 53.03215 | 10.80370 | 15319 ft | 367 kts | 357° |
| 2026-04-21 12:56 | 53.05751 | 10.79837 | 15320 ft | 367 kts | 357° |
| 2026-04-21 12:56 | 53.08284 | 10.79311 | 15318 ft | 367 kts | 357° |
| 2026-04-21 12:57 | 53.10818 | 10.78788 | 15322 ft | 367 kts | 357° |
| 2026-04-21 12:57 | 53.13349 | 10.78267 | 15325 ft | 367 kts | 357° |
| 2026-04-21 12:57 | 53.15884 | 10.77746 | 15325 ft | 367 kts | 357° |
| 2026-04-21 12:57 | 53.18415 | 10.77226 | 15305 ft | 367 kts | 357° |
| 2026-04-21 12:58 | 53.20954 | 10.76704 | 15314 ft | 368 kts | 357° |
| 2026-04-21 12:58 | 53.23492 | 10.76181 | 15319 ft | 368 kts | 357° |
| 2026-04-21 12:58 | 53.26034 | 10.75656 | 15315 ft | 368 kts | 357° |
| 2026-04-21 12:58 | 53.28582 | 10.75129 | 15316 ft | 369 kts | 357° |
| 2026-04-21 12:59 | 53.31124 | 10.74603 | 15323 ft | 369 kts | 357° |
| 2026-04-21 12:59 | 53.33672 | 10.74075 | 15328 ft | 369 kts | 357° |
| 2026-04-21 12:59 | 53.36218 | 10.73547 | 15336 ft | 369 kts | 357° |
| 2026-04-21 12:59 | 53.38763 | 10.73018 | 15348 ft | 369 kts | 357° |
| 2026-04-21 13:00 | 53.41309 | 10.72488 | 15343 ft | 369 kts | 357° |
| 2026-04-21 13:00 | 53.43854 | 10.71958 | 15346 ft | 369 kts | 357° |
| 2026-04-21 13:00 | 53.46400 | 10.71427 | 15344 ft | 369 kts | 357° |
| 2026-04-21 13:00 | 53.48943 | 10.70896 | 15355 ft | 367 kts | 357° |
| 2026-04-21 13:01 | 53.51458 | 10.70369 | 15348 ft | 362 kts | 357° |
| 2026-04-21 13:01 | 53.53954 | 10.69847 | 15351 ft | 362 kts | 357° |
| 2026-04-21 13:01 | 53.56451 | 10.69277 | 15347 ft | 365 kts | 352° |
| 2026-04-21 13:01 | 53.58821 | 10.67640 | 15290 ft | 372 kts | 330° |
| 2026-04-21 13:02 | 53.60656 | 10.64609 | 15069 ft | 371 kts | 308° |
| 2026-04-21 13:02 | 53.61453 | 10.62080 | 14902 ft | 369 kts | 293° |
| 2026-04-21 13:02 | 53.61634 | 10.53719 | 14407 ft | 357 kts | 255° |
| 2026-04-21 13:03 | 53.60917 | 10.49770 | 14171 ft | 349 kts | 252° |
| 2026-04-21 13:03 | 53.60158 | 10.45941 | 13893 ft | 342 kts | 251° |
| 2026-04-21 13:03 | 53.59400 | 10.42170 | 13618 ft | 336 kts | 251° |
| 2026-04-21 13:03 | 53.58661 | 10.38468 | 13325 ft | 331 kts | 251° |
| 2026-04-21 13:04 | 53.57943 | 10.34824 | 13060 ft | 325 kts | 251° |
| 2026-04-21 13:04 | 53.57248 | 10.31266 | 12827 ft | 315 kts | 252° |
| 2026-04-21 13:04 | 53.56571 | 10.27781 | 12578 ft | 313 kts | 252° |
| 2026-04-21 13:04 | 53.55896 | 10.24304 | 12323 ft | 313 kts | 252° |
| 2026-04-21 13:05 | 53.55223 | 10.20832 | 12064 ft | 310 kts | 252° |
| 2026-04-21 13:05 | 53.54561 | 10.17420 | 11780 ft | 303 kts | 252° |
| 2026-04-21 13:05 | 53.53914 | 10.14088 | 11384 ft | 297 kts | 252° |
| 2026-04-21 13:05 | 53.53279 | 10.10825 | 11000 ft | 290 kts | 252° |
| 2026-04-21 13:06 | 53.52656 | 10.07628 | 10631 ft | 286 kts | 252° |
| 2026-04-21 13:06 | 53.52040 | 10.04462 | 10212 ft | 283 kts | 252° |
| 2026-04-21 13:06 | 53.51431 | 10.01351 | 9770 ft | 278 kts | 251° |
| 2026-04-21 13:06 | 53.50833 | 9.98299 | 9317 ft | 273 kts | 251° |
| 2026-04-21 13:07 | 53.50236 | 9.95301 | 8865 ft | 269 kts | 249° |
| 2026-04-21 13:07 | 53.49273 | 9.92661 | 8407 ft | 263 kts | 227° |
| 2026-04-21 13:07 | 53.48077 | 9.90362 | 7993 ft | 260 kts | 227° |
| 2026-04-21 13:07 | 53.46908 | 9.88067 | 7557 ft | 258 kts | 228° |
| 2026-04-21 13:08 | 53.45756 | 9.85783 | 7173 ft | 254 kts | 228° |
| 2026-04-21 13:08 | 53.44627 | 9.83534 | 6791 ft | 250 kts | 229° |
| 2026-04-21 13:08 | 53.43517 | 9.81316 | 6427 ft | 245 kts | 229° |
| 2026-04-21 13:08 | 53.42442 | 9.79156 | 6168 ft | 237 kts | 229° |
| 2026-04-21 13:09 | 53.41401 | 9.77071 | 5983 ft | 232 kts | 228° |
| 2026-04-21 13:09 | 53.40375 | 9.75016 | 5776 ft | 228 kts | 228° |
| 2026-04-21 13:09 | 53.39370 | 9.73010 | 5576 ft | 221 kts | 228° |
| 2026-04-21 13:09 | 53.38391 | 9.71051 | 5339 ft | 217 kts | 229° |
| 2026-04-21 13:10 | 53.37436 | 9.69117 | 5143 ft | 214 kts | 227° |
| 2026-04-21 13:10 | 53.36472 | 9.67216 | 4931 ft | 215 kts | 227° |
| 2026-04-21 13:10 | 53.35504 | 9.65310 | 4710 ft | 215 kts | 228° |
| 2026-04-21 13:10 | 53.34548 | 9.63403 | 4483 ft | 213 kts | 228° |
| 2026-04-21 13:11 | 53.33599 | 9.61513 | 4280 ft | 211 kts | 228° |
| 2026-04-21 13:11 | 53.32660 | 9.59644 | 4087 ft | 209 kts | 229° |
| 2026-04-21 13:11 | 53.31718 | 9.57780 | 3869 ft | 210 kts | 229° |
| 2026-04-21 13:11 | 53.30784 | 9.55938 | 3872 ft | 205 kts | 230° |
| 2026-04-21 13:12 | 53.29905 | 9.54059 | 3869 ft | 206 kts | 240° |
| 2026-04-21 13:12 | 53.29666 | 9.51748 | 3925 ft | 207 kts | 281° |
| 2026-04-21 13:12 | 53.30295 | 9.49657 | 3883 ft | 201 kts | 316° |
| 2026-04-21 13:12 | 53.31300 | 9.48075 | 3882 ft | 197 kts | 322° |
| 2026-04-21 13:13 | 53.32355 | 9.46606 | 3889 ft | 199 kts | 324° |
| 2026-04-21 13:13 | 53.33423 | 9.45147 | 3875 ft | 195 kts | 327° |
| 2026-04-21 13:13 | 53.34611 | 9.44298 | 3879 ft | 181 kts | 0° |
| 2026-04-21 13:13 | 53.35805 | 9.44754 | 3915 ft | 177 kts | 30° |
| 2026-04-21 13:14 | 53.36717 | 9.46130 | 3898 ft | 178 kts | 53° |
| 2026-04-21 13:14 | 53.37505 | 9.47740 | 3874 ft | 180 kts | 50° |
| 2026-04-21 13:14 | 53.38313 | 9.49317 | 3907 ft | 178 kts | 50° |
| 2026-04-21 13:14 | 53.39113 | 9.50892 | 3939 ft | 177 kts | 50° |
| 2026-04-21 13:15 | 53.39914 | 9.52464 | 3965 ft | 179 kts | 51° |
| 2026-04-21 13:15 | 53.40708 | 9.54044 | 4065 ft | 173 kts | 51° |
| 2026-04-21 13:15 | 53.41431 | 9.55469 | 4096 ft | 153 kts | 51° |
| 2026-04-21 13:15 | 53.42116 | 9.56824 | 4018 ft | 148 kts | 51° |
| 2026-04-21 13:16 | 53.42774 | 9.58134 | 3905 ft | 147 kts | 50° |
| 2026-04-21 13:16 | 53.43462 | 9.59390 | 3835 ft | 146 kts | 47° |
| 2026-04-21 13:16 | 53.44146 | 9.60644 | 3768 ft | 145 kts | 49° |
| 2026-04-21 13:16 | 53.44812 | 9.61920 | 3672 ft | 145 kts | 50° |
| 2026-04-21 13:17 | 53.45465 | 9.63210 | 3608 ft | 144 kts | 51° |
| 2026-04-21 13:17 | 53.46046 | 9.64618 | 3380 ft | 154 kts | 63° |
| 2026-04-21 13:17 | 53.46452 | 9.66258 | 3033 ft | 148 kts | 66° |
| 2026-04-21 13:17 | 53.46823 | 9.67716 | 2967 ft | 123 kts | 63° |
| 2026-04-21 13:18 | 53.47188 | 9.68982 | 2819 ft | 119 kts | 63° |
| 2026-04-21 13:18 | 53.47515 | 9.70251 | 2497 ft | 119 kts | 64° |
| 2026-04-21 13:18 | 53.47884 | 9.71458 | 2177 ft | 114 kts | 58° |
| 2026-04-21 13:18 | 53.48316 | 9.72565 | 1811 ft | 112 kts | 54° |
| 2026-04-21 13:19 | 53.48761 | 9.73665 | 1469 ft | 112 kts | 55° |
| 2026-04-21 13:19 | 53.49217 | 9.74653 | 1168 ft | 105 kts | 50° |
| 2026-04-21 13:19 | 53.49671 | 9.75567 | 948 ft | 100 kts | 52° |
| 2026-04-21 13:19 | 53.50148 | 9.76538 | 789 ft | 116 kts | 51° |
| 2026-04-21 13:20 | 53.50687 | 9.77614 | 616 ft | 120 kts | 51° |
| 2026-04-21 13:20 | 53.51207 | 9.78657 | 481 ft | 115 kts | 52° |
| 2026-04-21 13:20 | 53.51702 | 9.79698 | 320 ft | 109 kts | 54° |
| 2026-04-21 13:20 | 53.52153 | 9.80675 | 187 ft | 103 kts | 52° |
| 2026-04-21 13:21 | 53.52600 | 9.81575 | 64 ft | 100 kts | 53° |
| 2026-04-21 13:21 | 53.53019 | 9.82478 | 18 ft | 87 kts | 50° |
| 2026-04-21 13:21 | 53.53302 | 9.83070 | 20 ft | 43 kts | 52° |
| 2026-04-21 13:21 | 53.53407 | 9.83313 | 20 ft | 9 kts | 79° |
| 2026-04-21 13:22 | 53.53381 | 9.83394 | 21 ft | 7 kts | 160° |
| 2026-04-21 13:22 | 53.53331 | 9.83407 | 21 ft | 7 kts | 170° |
| 2026-04-21 13:22 | 53.53288 | 9.83423 | 23 ft | 0 kts | 172° |
| 2026-04-21 13:23 | 53.53287 | 9.83423 | 21 ft | 0 kts | 172° |
| 2026-04-21 13:23 | 53.53282 | 9.83424 | 21 ft | 1 kts | 171° |
| 2026-04-21 13:24 | 53.53269 | 9.83423 | 21 ft | 2 kts | 197° |
| 2026-04-21 13:24 | 53.53262 | 9.83398 | 23 ft | 4 kts | 253° |
| 2026-04-21 13:24 | 53.53273 | 9.83315 | 21 ft | 13 kts | 289° |
| 2026-04-21 13:24 | 53.53344 | 9.83209 | 21 ft | 18 kts | 20° |
| 2026-04-21 13:25 | 53.53651 | 9.83823 | 27 ft | 124 kts | 54° |
| 2026-04-21 13:25 | 53.54418 | 9.84972 | 714 ft | 141 kts | 33° |
| 2026-04-21 13:25 | 53.55271 | 9.85683 | 725 ft | 136 kts | 26° |
| 2026-04-21 13:25 | 53.56124 | 9.86195 | 702 ft | 121 kts | 22° |
| 2026-04-21 13:26 | 53.56856 | 9.86678 | 619 ft | 106 kts | 38° |
| 2026-04-21 13:26 | 53.57387 | 9.87528 | 620 ft | 106 kts | 46° |
| 2026-04-21 13:26 | 53.57917 | 9.88450 | 778 ft | 112 kts | 52° |
| 2026-04-21 13:26 | 53.58383 | 9.89387 | 748 ft | 99 kts | 51° |
| 2026-04-21 13:27 | 53.58826 | 9.90309 | 544 ft | 104 kts | 50° |
| 2026-04-21 13:27 | 53.59281 | 9.91269 | 654 ft | 109 kts | 53° |
| 2026-04-21 13:27 | 53.59762 | 9.92359 | 681 ft | 120 kts | 52° |
| 2026-04-21 13:27 | 53.60318 | 9.93437 | 524 ft | 119 kts | 48° |
| 2026-04-21 13:28 | 53.60835 | 9.94394 | 341 ft | 102 kts | 50° |
| 2026-04-21 13:28 | 53.61295 | 9.95289 | 361 ft | 97 kts | 52° |
| 2026-04-21 13:28 | 53.61734 | 9.96215 | 156 ft | 103 kts | 51° |
| 2026-04-21 13:28 | 53.62195 | 9.97122 | 56 ft | 97 kts | 52° |
| 2026-04-21 13:29 | 53.62553 | 9.97869 | 47 ft | 65 kts | 49° |
| 2026-04-21 13:29 | 53.62757 | 9.98280 | 49 ft | 13 kts | 66° |
| 2026-04-21 13:29 | 53.62744 | 9.98360 | 48 ft | 7 kts | 137° |
| 2026-04-21 13:29 | 53.62704 | 9.98409 | 50 ft | 7 kts | 143° |
| 2026-04-21 13:30 | 53.62675 | 9.98472 | 47 ft | 7 kts | 105° |
| 2026-04-21 13:30 | 53.62690 | 9.98551 | 48 ft | 8 kts | 53° |
| 2026-04-21 13:30 | 53.62728 | 9.98630 | 49 ft | 10 kts | 50° |
| 2026-04-21 13:30 | 53.62775 | 9.98726 | 49 ft | 11 kts | 51° |
| 2026-04-21 13:31 | 53.62829 | 9.98839 | 49 ft | 13 kts | 51° |
| 2026-04-21 13:31 | 53.62890 | 9.98961 | 49 ft | 14 kts | 49° |
| 2026-04-21 13:31 | 53.62956 | 9.99092 | 49 ft | 15 kts | 50° |
| 2026-04-21 13:31 | 53.63026 | 9.99232 | 49 ft | 16 kts | 51° |
| 2026-04-21 13:32 | 53.63092 | 9.99378 | 49 ft | 16 kts | 54° |
| 2026-04-21 13:32 | 53.63156 | 9.99538 | 48 ft | 17 kts | 55° |
| 2026-04-21 13:32 | 53.63222 | 9.99692 | 49 ft | 11 kts | 70° |
| 2026-04-21 13:32 | 53.63182 | 9.99798 | 49 ft | 12 kts | 145° |
| 2026-04-21 13:33 | 53.63124 | 9.99876 | 49 ft | 8 kts | 90° |
| 2026-04-21 13:33 | 53.63151 | 9.99968 | 48 ft | 10 kts | 53° |
| 2026-04-21 13:33 | 53.63195 | 10.00067 | 50 ft | 11 kts | 53° |
| 2026-04-21 13:33 | 53.63242 | 10.00098 | 46 ft | 0 kts | 336° |
| 2026-04-21 13:34 | 53.63250 | 10.00091 | 48 ft | 2 kts | 330° |
| 2026-04-21 13:34 | 53.63262 | 10.00078 | 50 ft | 1 kts | 325° |
| 2026-04-21 13:34 | 53.63269 | 10.00070 | 50 ft | 0 kts | 325° |
| 2026-04-21 13:36 | 53.63268 | 10.00070 | 50 ft | 0 kts | 324° |